sensor_id;sensor_type;location;lat;lon;timestamp;temperature;humidity
72114;SHT31;59989;46.220;19.888;2024-02-21T00:01:38;8.25;86.38
72114;SHT31;59989;46.220;19.888;2024-02-21T00:04:43;8.23;86.31
72114;SHT31;59989;46.220;19.888;2024-02-21T00:07:46;8.17;86.50
72114;SHT31;59989;46.220;19.888;2024-02-21T00:10:48;8.09;87.16
72114;SHT31;59989;46.220;19.888;2024-02-21T00:13:51;8.03;87.19
72114;SHT31;59989;46.220;19.888;2024-02-21T00:16:54;7.93;87.84
72114;SHT31;59989;46.220;19.888;2024-02-21T00:19:57;7.89;87.53
72114;SHT31;59989;46.220;19.888;2024-02-21T00:22:59;7.85;87.90
72114;SHT31;59989;46.220;19.888;2024-02-21T00:26:02;7.79;87.55
72114;SHT31;59989;46.220;19.888;2024-02-21T00:29:05;7.71;88.15
72114;SHT31;59989;46.220;19.888;2024-02-21T00:32:10;7.68;87.96
72114;SHT31;59989;46.220;19.888;2024-02-21T00:35:14;7.64;87.96
72114;SHT31;59989;46.220;19.888;2024-02-21T00:38:16;7.68;87.34
72114;SHT31;59989;46.220;19.888;2024-02-21T00:41:19;7.61;87.73
72114;SHT31;59989;46.220;19.888;2024-02-21T00:44:21;7.64;87.22
72114;SHT31;59989;46.220;19.888;2024-02-21T00:47:24;7.54;87.50
72114;SHT31;59989;46.220;19.888;2024-02-21T00:50:27;7.47;87.46
72114;SHT31;59989;46.220;19.888;2024-02-21T00:53:29;7.32;87.99
72114;SHT31;59989;46.220;19.888;2024-02-21T00:56:31;7.34;87.27
72114;SHT31;59989;46.220;19.888;2024-02-21T00:59:34;7.23;87.68
72114;SHT31;59989;46.220;19.888;2024-02-21T01:02:37;7.19;87.78
72114;SHT31;59989;46.220;19.888;2024-02-21T01:05:39;7.11;87.98
72114;SHT31;59989;46.220;19.888;2024-02-21T01:08:42;7.13;87.81
72114;SHT31;59989;46.220;19.888;2024-02-21T01:11:44;7.03;87.87
72114;SHT31;59989;46.220;19.888;2024-02-21T01:14:47;6.96;88.29
72114;SHT31;59989;46.220;19.888;2024-02-21T01:17:49;6.92;88.03
72114;SHT31;59989;46.220;19.888;2024-02-21T01:20:57;6.92;87.98
72114;SHT31;59989;46.220;19.888;2024-02-21T01:23:59;6.90;88.11
72114;SHT31;59989;46.220;19.888;2024-02-21T01:27:02;6.92;88.32
72114;SHT31;59989;46.220;19.888;2024-02-21T01:30:05;6.93;88.06
72114;SHT31;59989;46.220;19.888;2024-02-21T01:33:08;6.92;88.25
72114;SHT31;59989;46.220;19.888;2024-02-21T01:36:11;6.89;88.17
72114;SHT31;59989;46.220;19.888;2024-02-21T01:39:14;6.95;87.60
72114;SHT31;59989;46.220;19.888;2024-02-21T01:42:16;6.90;87.80
72114;SHT31;59989;46.220;19.888;2024-02-21T01:45:19;6.90;87.77
72114;SHT31;59989;46.220;19.888;2024-02-21T01:48:22;6.96;87.27
72114;SHT31;59989;46.220;19.888;2024-02-21T01:51:26;6.92;87.54
72114;SHT31;59989;46.220;19.888;2024-02-21T01:54:29;6.88;88.13
72114;SHT31;59989;46.220;19.888;2024-02-21T01:57:32;6.79;88.19
72114;SHT31;59989;46.220;19.888;2024-02-21T02:00:35;6.71;88.37
72114;SHT31;59989;46.220;19.888;2024-02-21T02:03:38;6.61;88.62
72114;SHT31;59989;46.220;19.888;2024-02-21T02:06:41;6.64;88.15
72114;SHT31;59989;46.220;19.888;2024-02-21T02:09:43;6.53;88.48
72114;SHT31;59989;46.220;19.888;2024-02-21T02:12:46;6.56;88.23
72114;SHT31;59989;46.220;19.888;2024-02-21T02:15:49;6.55;88.13
72114;SHT31;59989;46.220;19.888;2024-02-21T02:18:52;6.49;88.17
72114;SHT31;59989;46.220;19.888;2024-02-21T02:22:09;6.45;88.45
72114;SHT31;59989;46.220;19.888;2024-02-21T02:25:13;6.31;88.83
72114;SHT31;59989;46.220;19.888;2024-02-21T02:28:16;6.27;88.99
72114;SHT31;59989;46.220;19.888;2024-02-21T02:31:18;6.22;88.95
72114;SHT31;59989;46.220;19.888;2024-02-21T02:34:21;6.24;88.91
72114;SHT31;59989;46.220;19.888;2024-02-21T02:37:23;6.24;88.94
72114;SHT31;59989;46.220;19.888;2024-02-21T02:40:26;6.22;88.85
72114;SHT31;59989;46.220;19.888;2024-02-21T02:43:28;6.22;88.62
72114;SHT31;59989;46.220;19.888;2024-02-21T02:46:31;6.22;88.37
72114;SHT31;59989;46.220;19.888;2024-02-21T02:49:34;6.25;88.29
72114;SHT31;59989;46.220;19.888;2024-02-21T02:52:36;6.28;87.87
72114;SHT31;59989;46.220;19.888;2024-02-21T02:55:39;6.34;87.88
72114;SHT31;59989;46.220;19.888;2024-02-21T02:58:43;6.34;87.91
72114;SHT31;59989;46.220;19.888;2024-02-21T03:01:46;6.37;87.55
72114;SHT31;59989;46.220;19.888;2024-02-21T03:04:48;6.44;87.14
72114;SHT31;59989;46.220;19.888;2024-02-21T03:07:51;6.41;87.52
72114;SHT31;59989;46.220;19.888;2024-02-21T03:10:54;6.44;87.22
72114;SHT31;59989;46.220;19.888;2024-02-21T03:13:56;6.52;86.60
72114;SHT31;59989;46.220;19.888;2024-02-21T03:16:59;6.51;86.64
72114;SHT31;59989;46.220;19.888;2024-02-21T03:20:02;6.64;85.43
72114;SHT31;59989;46.220;19.888;2024-02-21T03:23:10;6.71;84.84
72114;SHT31;59989;46.220;19.888;2024-02-21T03:26:13;6.69;85.21
72114;SHT31;59989;46.220;19.888;2024-02-21T03:29:19;6.64;85.46
72114;SHT31;59989;46.220;19.888;2024-02-21T03:32:21;6.64;85.28
72114;SHT31;59989;46.220;19.888;2024-02-21T03:35:24;6.68;84.72
72114;SHT31;59989;46.220;19.888;2024-02-21T03:38:29;6.69;84.67
72114;SHT31;59989;46.220;19.888;2024-02-21T03:41:31;6.71;84.79
72114;SHT31;59989;46.220;19.888;2024-02-21T03:44:33;6.72;84.38
72114;SHT31;59989;46.220;19.888;2024-02-21T03:47:36;6.75;84.43
72114;SHT31;59989;46.220;19.888;2024-02-21T03:50:39;6.71;84.42
72114;SHT31;59989;46.220;19.888;2024-02-21T03:53:41;6.72;84.52
72114;SHT31;59989;46.220;19.888;2024-02-21T03:56:44;6.68;84.91
72114;SHT31;59989;46.220;19.888;2024-02-21T03:59:50;6.68;84.37
72114;SHT31;59989;46.220;19.888;2024-02-21T04:02:53;6.67;84.80
72114;SHT31;59989;46.220;19.888;2024-02-21T04:05:56;6.68;84.65
72114;SHT31;59989;46.220;19.888;2024-02-21T04:08:59;6.68;84.54
72114;SHT31;59989;46.220;19.888;2024-02-21T04:12:01;6.67;84.57
72114;SHT31;59989;46.220;19.888;2024-02-21T04:15:04;6.64;84.51
72114;SHT31;59989;46.220;19.888;2024-02-21T04:18:06;6.64;84.81
72114;SHT31;59989;46.220;19.888;2024-02-21T04:21:09;6.62;84.68
72114;SHT31;59989;46.220;19.888;2024-02-21T04:24:15;6.64;84.64
72114;SHT31;59989;46.220;19.888;2024-02-21T04:27:17;6.61;84.77
72114;SHT31;59989;46.220;19.888;2024-02-21T04:30:20;6.61;84.79
72114;SHT31;59989;46.220;19.888;2024-02-21T04:33:23;6.62;84.69
72114;SHT31;59989;46.220;19.888;2024-02-21T04:36:25;6.58;84.90
72114;SHT31;59989;46.220;19.888;2024-02-21T04:39:27;6.55;85.27
72114;SHT31;59989;46.220;19.888;2024-02-21T04:42:30;6.52;85.21
72114;SHT31;59989;46.220;19.888;2024-02-21T04:45:32;6.51;85.50
72114;SHT31;59989;46.220;19.888;2024-02-21T04:48:35;6.51;85.43
72114;SHT31;59989;46.220;19.888;2024-02-21T04:51:40;6.49;85.58
72114;SHT31;59989;46.220;19.888;2024-02-21T04:54:42;6.51;85.48
72114;SHT31;59989;46.220;19.888;2024-02-21T04:57:45;6.48;85.59
72114;SHT31;59989;46.220;19.888;2024-02-21T05:00:47;6.46;85.77
72114;SHT31;59989;46.220;19.888;2024-02-21T05:03:50;6.49;85.62
72114;SHT31;59989;46.220;19.888;2024-02-21T05:06:53;6.49;85.84
72114;SHT31;59989;46.220;19.888;2024-02-21T05:09:55;6.53;85.59
72114;SHT31;59989;46.220;19.888;2024-02-21T05:12:58;6.52;85.74
72114;SHT31;59989;46.220;19.888;2024-02-21T05:16:01;6.52;85.68
72114;SHT31;59989;46.220;19.888;2024-02-21T05:19:04;6.56;85.42
72114;SHT31;59989;46.220;19.888;2024-02-21T05:22:07;6.56;85.38
72114;SHT31;59989;46.220;19.888;2024-02-21T05:25:09;6.61;85.15
72114;SHT31;59989;46.220;19.888;2024-02-21T05:28:12;6.58;85.24
72114;SHT31;59989;46.220;19.888;2024-02-21T05:31:15;6.58;85.25
72114;SHT31;59989;46.220;19.888;2024-02-21T05:34:19;6.61;85.01
72114;SHT31;59989;46.220;19.888;2024-02-21T05:37:22;6.62;84.88
72114;SHT31;59989;46.220;19.888;2024-02-21T05:40:25;6.64;84.94
72114;SHT31;59989;46.220;19.888;2024-02-21T05:43:27;6.68;84.73
72114;SHT31;59989;46.220;19.888;2024-02-21T05:46:30;6.69;84.40
72114;SHT31;59989;46.220;19.888;2024-02-21T05:49:32;6.72;84.57
72114;SHT31;59989;46.220;19.888;2024-02-21T05:52:35;6.71;84.38
72114;SHT31;59989;46.220;19.888;2024-02-21T05:55:38;6.69;84.33
72114;SHT31;59989;46.220;19.888;2024-02-21T05:58:41;6.68;84.68
72114;SHT31;59989;46.220;19.888;2024-02-21T06:01:43;6.73;84.11
72114;SHT31;59989;46.220;19.888;2024-02-21T06:04:46;6.73;84.14
72114;SHT31;59989;46.220;19.888;2024-02-21T06:07:49;6.79;83.73
72114;SHT31;59989;46.220;19.888;2024-02-21T06:10:52;6.79;83.80
72114;SHT31;59989;46.220;19.888;2024-02-21T06:13:57;6.76;83.65
72114;SHT31;59989;46.220;19.888;2024-02-21T06:16:59;6.79;83.84
72114;SHT31;59989;46.220;19.888;2024-02-21T06:20:02;6.82;83.23
72114;SHT31;59989;46.220;19.888;2024-02-21T06:23:05;6.82;83.58
72114;SHT31;59989;46.220;19.888;2024-02-21T06:26:08;6.78;83.70
72114;SHT31;59989;46.220;19.888;2024-02-21T06:29:12;6.82;83.66
72114;SHT31;59989;46.220;19.888;2024-02-21T06:32:15;6.88;83.30
72114;SHT31;59989;46.220;19.888;2024-02-21T06:35:18;6.86;83.45
72114;SHT31;59989;46.220;19.888;2024-02-21T06:38:21;6.89;83.37
72114;SHT31;59989;46.220;19.888;2024-02-21T06:41:24;6.96;83.02
72114;SHT31;59989;46.220;19.888;2024-02-21T06:44:27;7.04;82.56
72114;SHT31;59989;46.220;19.888;2024-02-21T06:47:30;7.06;82.51
72114;SHT31;59989;46.220;19.888;2024-02-21T06:50:35;7.09;82.31
72114;SHT31;59989;46.220;19.888;2024-02-21T06:53:38;7.10;81.88
72114;SHT31;59989;46.220;19.888;2024-02-21T06:56:40;7.14;81.97
72114;SHT31;59989;46.220;19.888;2024-02-21T06:59:43;7.27;81.59
72114;SHT31;59989;46.220;19.888;2024-02-21T07:02:45;7.34;81.35
72114;SHT31;59989;46.220;19.888;2024-02-21T07:05:48;7.43;81.15
72114;SHT31;59989;46.220;19.888;2024-02-21T07:08:51;7.50;80.94
72114;SHT31;59989;46.220;19.888;2024-02-21T07:11:54;7.62;80.42
72114;SHT31;59989;46.220;19.888;2024-02-21T07:14:56;7.75;80.05
72114;SHT31;59989;46.220;19.888;2024-02-21T07:17:59;7.79;79.77
72114;SHT31;59989;46.220;19.888;2024-02-21T07:21:02;7.95;78.96
72114;SHT31;59989;46.220;19.888;2024-02-21T07:24:05;8.00;79.22
72114;SHT31;59989;46.220;19.888;2024-02-21T07:27:08;8.14;78.89
72114;SHT31;59989;46.220;19.888;2024-02-21T07:30:11;8.25;78.78
72114;SHT31;59989;46.220;19.888;2024-02-21T07:33:18;8.34;77.69
72114;SHT31;59989;46.220;19.888;2024-02-21T07:36:28;8.43;77.08
72114;SHT31;59989;46.220;19.888;2024-02-21T07:39:31;8.55;77.32
72114;SHT31;59989;46.220;19.888;2024-02-21T07:42:37;8.58;77.07
72114;SHT31;59989;46.220;19.888;2024-02-21T07:45:40;8.65;77.09
72114;SHT31;59989;46.220;19.888;2024-02-21T07:48:42;8.74;76.89
72114;SHT31;59989;46.220;19.888;2024-02-21T07:51:45;8.88;75.79
72114;SHT31;59989;46.220;19.888;2024-02-21T07:54:48;8.95;76.15
72114;SHT31;59989;46.220;19.888;2024-02-21T07:57:50;9.05;75.68
72114;SHT31;59989;46.220;19.888;2024-02-21T08:00:53;9.19;74.52
72114;SHT31;59989;46.220;19.888;2024-02-21T08:03:55;9.33;74.81
72114;SHT31;59989;46.220;19.888;2024-02-21T08:06:58;9.63;75.12
72114;SHT31;59989;46.220;19.888;2024-02-21T08:10:04;9.61;74.05
72114;SHT31;59989;46.220;19.888;2024-02-21T08:13:07;9.71;73.46
72114;SHT31;59989;46.220;19.888;2024-02-21T08:16:09;9.88;73.14
72114;SHT31;59989;46.220;19.888;2024-02-21T08:19:12;10.08;72.76
72114;SHT31;59989;46.220;19.888;2024-02-21T08:22:15;10.19;72.15
72114;SHT31;59989;46.220;19.888;2024-02-21T08:25:18;10.31;72.24
72114;SHT31;59989;46.220;19.888;2024-02-21T08:28:20;10.50;71.31
72114;SHT31;59989;46.220;19.888;2024-02-21T08:31:23;10.49;70.81
72114;SHT31;59989;46.220;19.888;2024-02-21T08:34:27;10.46;70.41
72114;SHT31;59989;46.220;19.888;2024-02-21T08:37:32;10.38;69.70
72114;SHT31;59989;46.220;19.888;2024-02-21T08:40:34;10.31;69.74
72114;SHT31;59989;46.220;19.888;2024-02-21T08:43:37;10.63;70.05
72114;SHT31;59989;46.220;19.888;2024-02-21T08:46:40;10.55;69.83
72114;SHT31;59989;46.220;19.888;2024-02-21T08:49:42;10.61;70.28
72114;SHT31;59989;46.220;19.888;2024-02-21T08:52:45;10.63;69.91
72114;SHT31;59989;46.220;19.888;2024-02-21T08:55:48;10.91;69.21
72114;SHT31;59989;46.220;19.888;2024-02-21T08:58:50;10.84;69.10
72114;SHT31;59989;46.220;19.888;2024-02-21T09:01:53;11.15;68.62
72114;SHT31;59989;46.220;19.888;2024-02-21T09:04:56;11.18;68.82
72114;SHT31;59989;46.220;19.888;2024-02-21T09:07:59;11.00;68.11
72114;SHT31;59989;46.220;19.888;2024-02-21T09:11:02;11.31;67.09
72114;SHT31;59989;46.220;19.888;2024-02-21T09:14:04;11.35;68.39
72114;SHT31;59989;46.220;19.888;2024-02-21T09:17:07;11.56;67.58
72114;SHT31;59989;46.220;19.888;2024-02-21T09:20:09;11.62;66.89
72114;SHT31;59989;46.220;19.888;2024-02-21T09:23:14;11.52;67.29
72114;SHT31;59989;46.220;19.888;2024-02-21T09:26:16;11.63;65.35
72114;SHT31;59989;46.220;19.888;2024-02-21T09:29:19;11.15;65.43
72114;SHT31;59989;46.220;19.888;2024-02-21T09:32:27;11.19;64.93
72114;SHT31;59989;46.220;19.888;2024-02-21T09:35:29;11.34;64.95
72114;SHT31;59989;46.220;19.888;2024-02-21T09:38:32;11.38;65.02
72114;SHT31;59989;46.220;19.888;2024-02-21T09:41:36;11.38;64.73
72114;SHT31;59989;46.220;19.888;2024-02-21T09:44:42;11.85;65.00
72114;SHT31;59989;46.220;19.888;2024-02-21T09:51:10;12.04;64.42
72114;SHT31;59989;46.220;19.888;2024-02-21T09:54:13;12.17;63.52
72114;SHT31;59989;46.220;19.888;2024-02-21T09:57:18;11.79;63.65
72114;SHT31;59989;46.220;19.888;2024-02-21T10:00:22;11.89;63.86
72114;SHT31;59989;46.220;19.888;2024-02-21T10:03:25;11.83;64.32
72114;SHT31;59989;46.220;19.888;2024-02-21T10:06:27;11.51;63.17
72114;SHT31;59989;46.220;19.888;2024-02-21T10:09:30;12.42;61.16
72114;SHT31;59989;46.220;19.888;2024-02-21T10:12:33;11.73;62.47
72114;SHT31;59989;46.220;19.888;2024-02-21T10:15:35;11.90;62.32
72114;SHT31;59989;46.220;19.888;2024-02-21T10:18:38;11.40;63.53
72114;SHT31;59989;46.220;19.888;2024-02-21T10:21:41;11.24;63.37
72114;SHT31;59989;46.220;19.888;2024-02-21T10:24:43;11.58;63.04
72114;SHT31;59989;46.220;19.888;2024-02-21T10:27:48;12.01;61.27
72114;SHT31;59989;46.220;19.888;2024-02-21T10:30:51;11.89;61.94
72114;SHT31;59989;46.220;19.888;2024-02-21T10:33:55;12.51;62.14
72114;SHT31;59989;46.220;19.888;2024-02-21T10:37:02;12.82;60.82
72114;SHT31;59989;46.220;19.888;2024-02-21T10:40:06;12.27;61.25
72114;SHT31;59989;46.220;19.888;2024-02-21T10:43:12;11.94;62.18
72114;SHT31;59989;46.220;19.888;2024-02-21T10:46:19;12.33;61.20
72114;SHT31;59989;46.220;19.888;2024-02-21T10:49:26;13.17;59.19
72114;SHT31;59989;46.220;19.888;2024-02-21T10:56:40;12.23;60.69
72114;SHT31;59989;46.220;19.888;2024-02-21T10:59:18;11.90;60.76
72114;SHT31;59989;46.220;19.888;2024-02-21T11:02:23;12.08;61.02
72114;SHT31;59989;46.220;19.888;2024-02-21T11:05:27;13.03;57.11
72114;SHT31;59989;46.220;19.888;2024-02-21T11:08:30;12.76;53.47
72114;SHT31;59989;46.220;19.888;2024-02-21T11:11:45;13.23;53.36
72114;SHT31;59989;46.220;19.888;2024-02-21T11:14:48;12.92;53.63
72114;SHT31;59989;46.220;19.888;2024-02-21T11:17:55;13.36;54.74
72114;SHT31;59989;46.220;19.888;2024-02-21T11:21:03;13.34;53.18
72114;SHT31;59989;46.220;19.888;2024-02-21T11:24:07;13.21;52.78
72114;SHT31;59989;46.220;19.888;2024-02-21T11:27:12;13.44;51.09
72114;SHT31;59989;46.220;19.888;2024-02-21T11:30:15;13.81;50.19
72114;SHT31;59989;46.220;19.888;2024-02-21T11:33:19;13.10;52.20
72114;SHT31;59989;46.220;19.888;2024-02-21T11:36:27;12.92;53.44
72114;SHT31;59989;46.220;19.888;2024-02-21T11:39:33;12.56;54.44
72114;SHT31;59989;46.220;19.888;2024-02-21T11:42:39;12.66;52.91
72114;SHT31;59989;46.220;19.888;2024-02-21T11:45:42;13.46;48.84
72114;SHT31;59989;46.220;19.888;2024-02-21T11:48:44;14.32;47.16
72114;SHT31;59989;46.220;19.888;2024-02-21T11:51:59;14.43;48.32
72114;SHT31;59989;46.220;19.888;2024-02-21T11:55:03;15.84;47.25
72114;SHT31;59989;46.220;19.888;2024-02-21T11:58:07;15.87;48.96
72114;SHT31;59989;46.220;19.888;2024-02-21T12:01:10;14.59;48.84
72114;SHT31;59989;46.220;19.888;2024-02-21T12:04:13;15.22;50.17
72114;SHT31;59989;46.220;19.888;2024-02-21T12:07:18;15.46;48.81
72114;SHT31;59989;46.220;19.888;2024-02-21T12:10:21;14.71;50.60
72114;SHT31;59989;46.220;19.888;2024-02-21T12:13:24;14.83;49.66
72114;SHT31;59989;46.220;19.888;2024-02-21T12:16:27;13.65;52.16
72114;SHT31;59989;46.220;19.888;2024-02-21T12:19:32;13.12;55.88
72114;SHT31;59989;46.220;19.888;2024-02-21T12:22:35;12.78;57.16
72114;SHT31;59989;46.220;19.888;2024-02-21T12:25:38;12.48;56.83
72114;SHT31;59989;46.220;19.888;2024-02-21T12:28:42;12.40;58.20
72114;SHT31;59989;46.220;19.888;2024-02-21T12:31:44;12.27;57.22
72114;SHT31;59989;46.220;19.888;2024-02-21T12:34:49;12.41;57.76
72114;SHT31;59989;46.220;19.888;2024-02-21T12:37:55;12.86;58.07
72114;SHT31;59989;46.220;19.888;2024-02-21T12:40:58;12.65;56.87
72114;SHT31;59989;46.220;19.888;2024-02-21T12:44:03;12.66;57.83
72114;SHT31;59989;46.220;19.888;2024-02-21T12:47:06;12.46;58.32
72114;SHT31;59989;46.220;19.888;2024-02-21T12:50:10;12.18;57.36
72114;SHT31;59989;46.220;19.888;2024-02-21T12:53:13;12.06;57.74
72114;SHT31;59989;46.220;19.888;2024-02-21T12:56:27;11.94;58.37
72114;SHT31;59989;46.220;19.888;2024-02-21T12:59:29;12.10;59.09
72114;SHT31;59989;46.220;19.888;2024-02-21T13:02:32;12.06;58.16
72114;SHT31;59989;46.220;19.888;2024-02-21T13:05:36;12.13;58.94
72114;SHT31;59989;46.220;19.888;2024-02-21T13:08:39;13.17;57.12
72114;SHT31;59989;46.220;19.888;2024-02-21T13:11:43;12.95;56.95
72114;SHT31;59989;46.220;19.888;2024-02-21T13:14:47;12.69;57.97
72114;SHT31;59989;46.220;19.888;2024-02-21T13:17:50;12.69;58.22
72114;SHT31;59989;46.220;19.888;2024-02-21T13:20:53;12.55;57.48
72114;SHT31;59989;46.220;19.888;2024-02-21T13:23:56;12.33;57.12
72114;SHT31;59989;46.220;19.888;2024-02-21T13:26:59;12.12;55.99
72114;SHT31;59989;46.220;19.888;2024-02-21T13:30:02;12.00;56.22
72114;SHT31;59989;46.220;19.888;2024-02-21T13:33:08;12.04;56.05
72114;SHT31;59989;46.220;19.888;2024-02-21T13:36:12;12.12;56.59
72114;SHT31;59989;46.220;19.888;2024-02-21T13:39:15;12.12;55.80
72114;SHT31;59989;46.220;19.888;2024-02-21T13:42:19;12.31;55.52
72114;SHT31;59989;46.220;19.888;2024-02-21T13:45:21;12.27;55.23
72114;SHT31;59989;46.220;19.888;2024-02-21T13:48:25;12.16;55.17
72114;SHT31;59989;46.220;19.888;2024-02-21T13:51:29;12.16;55.50
72114;SHT31;59989;46.220;19.888;2024-02-21T13:54:32;12.21;56.57
72114;SHT31;59989;46.220;19.888;2024-02-21T13:57:36;12.06;56.44
72114;SHT31;59989;46.220;19.888;2024-02-21T14:00:38;12.13;56.68
72114;SHT31;59989;46.220;19.888;2024-02-21T14:03:41;12.20;58.10
72114;SHT31;59989;46.220;19.888;2024-02-21T14:06:46;12.24;58.90
72114;SHT31;59989;46.220;19.888;2024-02-21T14:09:49;12.18;59.27
72114;SHT31;59989;46.220;19.888;2024-02-21T14:12:52;12.28;59.77
72114;SHT31;59989;46.220;19.888;2024-02-21T14:15:54;12.28;59.03
72114;SHT31;59989;46.220;19.888;2024-02-21T14:18:57;12.49;59.95
72114;SHT31;59989;46.220;19.888;2024-02-21T14:22:00;12.38;59.63
72114;SHT31;59989;46.220;19.888;2024-02-21T14:25:05;12.21;59.50
72114;SHT31;59989;46.220;19.888;2024-02-21T14:28:08;12.08;59.76
72114;SHT31;59989;46.220;19.888;2024-02-21T14:31:11;12.07;59.97
72114;SHT31;59989;46.220;19.888;2024-02-21T14:34:14;12.16;60.57
72114;SHT31;59989;46.220;19.888;2024-02-21T14:37:17;11.96;60.61
72114;SHT31;59989;46.220;19.888;2024-02-21T14:40:19;11.83;60.36
72114;SHT31;59989;46.220;19.888;2024-02-21T14:43:23;11.82;60.71
72114;SHT31;59989;46.220;19.888;2024-02-21T14:46:26;11.76;60.49
72114;SHT31;59989;46.220;19.888;2024-02-21T14:49:32;11.76;60.92
72114;SHT31;59989;46.220;19.888;2024-02-21T14:52:34;11.75;61.48
72114;SHT31;59989;46.220;19.888;2024-02-21T14:55:39;11.69;61.21
72114;SHT31;59989;46.220;19.888;2024-02-21T14:58:44;11.76;61.98
72114;SHT31;59989;46.220;19.888;2024-02-21T15:01:47;11.80;62.39
72114;SHT31;59989;46.220;19.888;2024-02-21T15:04:49;11.90;61.96
72114;SHT31;59989;46.220;19.888;2024-02-21T15:07:55;11.85;61.06
72114;SHT31;59989;46.220;19.888;2024-02-21T15:11:00;11.89;61.64
72114;SHT31;59989;46.220;19.888;2024-02-21T15:14:03;11.83;61.31
72114;SHT31;59989;46.220;19.888;2024-02-21T15:17:05;11.86;62.70
72114;SHT31;59989;46.220;19.888;2024-02-21T15:20:08;11.83;62.57
72114;SHT31;59989;46.220;19.888;2024-02-21T15:23:11;11.62;60.31
72114;SHT31;59989;46.220;19.888;2024-02-21T15:26:14;11.45;60.25
72114;SHT31;59989;46.220;19.888;2024-02-21T15:29:17;11.38;60.29
72114;SHT31;59989;46.220;19.888;2024-02-21T15:32:20;11.28;60.76
72114;SHT31;59989;46.220;19.888;2024-02-21T15:35:22;11.21;61.25
72114;SHT31;59989;46.220;19.888;2024-02-21T15:38:25;11.10;61.84
72114;SHT31;59989;46.220;19.888;2024-02-21T15:41:27;10.93;62.90
72114;SHT31;59989;46.220;19.888;2024-02-21T15:44:30;10.81;63.13
72114;SHT31;59989;46.220;19.888;2024-02-21T15:47:32;10.67;63.60
72114;SHT31;59989;46.220;19.888;2024-02-21T15:50:36;10.57;63.93
72114;SHT31;59989;46.220;19.888;2024-02-21T15:53:39;10.48;64.62
72114;SHT31;59989;46.220;19.888;2024-02-21T15:56:47;10.33;64.90
72114;SHT31;59989;46.220;19.888;2024-02-21T15:59:50;10.19;64.87
72114;SHT31;59989;46.220;19.888;2024-02-21T16:02:52;10.08;65.34
72114;SHT31;59989;46.220;19.888;2024-02-21T16:05:55;10.01;65.73
72114;SHT31;59989;46.220;19.888;2024-02-21T16:08:58;9.87;66.20
72114;SHT31;59989;46.220;19.888;2024-02-21T16:12:01;9.67;67.06
72114;SHT31;59989;46.220;19.888;2024-02-21T16:15:08;9.53;67.04
72114;SHT31;59989;46.220;19.888;2024-02-21T16:18:13;9.30;67.83
72114;SHT31;59989;46.220;19.888;2024-02-21T16:21:17;9.12;68.15
72114;SHT31;59989;46.220;19.888;2024-02-21T16:24:20;8.86;69.35
72114;SHT31;59989;46.220;19.888;2024-02-21T16:27:23;8.64;69.64
72114;SHT31;59989;46.220;19.888;2024-02-21T16:30:27;8.44;70.45
72114;SHT31;59989;46.220;19.888;2024-02-21T16:33:29;8.26;70.59
72114;SHT31;59989;46.220;19.888;2024-02-21T16:36:32;8.10;70.59
72114;SHT31;59989;46.220;19.888;2024-02-21T16:39:34;7.95;71.37
72114;SHT31;59989;46.220;19.888;2024-02-21T16:42:37;7.85;71.49
72114;SHT31;59989;46.220;19.888;2024-02-21T16:45:40;7.72;72.16
72114;SHT31;59989;46.220;19.888;2024-02-21T16:48:43;7.61;72.89
72114;SHT31;59989;46.220;19.888;2024-02-21T16:51:46;7.47;73.40
72114;SHT31;59989;46.220;19.888;2024-02-21T16:54:48;7.43;73.68
72114;SHT31;59989;46.220;19.888;2024-02-21T16:57:51;7.30;74.29
72114;SHT31;59989;46.220;19.888;2024-02-21T17:00:53;7.20;75.15
72114;SHT31;59989;46.220;19.888;2024-02-21T17:03:56;7.07;75.95
72114;SHT31;59989;46.220;19.888;2024-02-21T17:06:58;7.11;75.73
72114;SHT31;59989;46.220;19.888;2024-02-21T17:10:02;7.10;75.69
72114;SHT31;59989;46.220;19.888;2024-02-21T17:13:08;7.09;75.67
72114;SHT31;59989;46.220;19.888;2024-02-21T17:16:11;6.99;75.89
72114;SHT31;59989;46.220;19.888;2024-02-21T17:19:14;6.88;76.31
72114;SHT31;59989;46.220;19.888;2024-02-21T17:22:19;6.76;76.94
72114;SHT31;59989;46.220;19.888;2024-02-21T17:25:22;6.62;77.25
72114;SHT31;59989;46.220;19.888;2024-02-21T17:28:25;6.56;77.82
72114;SHT31;59989;46.220;19.888;2024-02-21T17:31:28;6.42;78.19
72114;SHT31;59989;46.220;19.888;2024-02-21T17:34:30;6.34;78.85
72114;SHT31;59989;46.220;19.888;2024-02-21T17:37:34;6.34;80.11
72114;SHT31;59989;46.220;19.888;2024-02-21T17:40:37;6.37;80.42
72114;SHT31;59989;46.220;19.888;2024-02-21T17:43:40;6.25;80.35
72114;SHT31;59989;46.220;19.888;2024-02-21T17:46:44;6.11;80.56
72114;SHT31;59989;46.220;19.888;2024-02-21T17:49:47;6.03;80.88
72114;SHT31;59989;46.220;19.888;2024-02-21T17:52:49;5.89;81.36
72114;SHT31;59989;46.220;19.888;2024-02-21T17:55:52;5.77;81.25
72114;SHT31;59989;46.220;19.888;2024-02-21T17:58:54;5.65;82.02
72114;SHT31;59989;46.220;19.888;2024-02-21T18:01:57;5.51;82.75
72114;SHT31;59989;46.220;19.888;2024-02-21T18:05:00;5.63;81.74
72114;SHT31;59989;46.220;19.888;2024-02-21T18:08:03;5.55;82.42
72114;SHT31;59989;46.220;19.888;2024-02-21T18:11:06;5.58;82.39
72114;SHT31;59989;46.220;19.888;2024-02-21T18:14:09;5.56;82.11
72114;SHT31;59989;46.220;19.888;2024-02-21T18:17:12;5.51;82.33
72114;SHT31;59989;46.220;19.888;2024-02-21T18:20:18;5.42;82.48
72114;SHT31;59989;46.220;19.888;2024-02-21T18:23:21;5.27;82.65
72114;SHT31;59989;46.220;19.888;2024-02-21T18:26:23;5.13;83.04
72114;SHT31;59989;46.220;19.888;2024-02-21T18:29:26;5.04;83.60
72114;SHT31;59989;46.220;19.888;2024-02-21T18:32:41;5.07;83.66
72114;SHT31;59989;46.220;19.888;2024-02-21T18:35:44;5.03;83.46
72114;SHT31;59989;46.220;19.888;2024-02-21T18:38:46;4.93;84.00
72114;SHT31;59989;46.220;19.888;2024-02-21T18:41:49;4.80;84.33
72114;SHT31;59989;46.220;19.888;2024-02-21T18:44:52;4.74;84.47
72114;SHT31;59989;46.220;19.888;2024-02-21T18:47:56;4.93;83.84
72114;SHT31;59989;46.220;19.888;2024-02-21T18:50:59;4.87;83.77
72114;SHT31;59989;46.220;19.888;2024-02-21T18:54:03;4.74;84.10
72114;SHT31;59989;46.220;19.888;2024-02-21T18:57:06;4.67;84.76
72114;SHT31;59989;46.220;19.888;2024-02-21T19:00:10;4.60;84.98
72114;SHT31;59989;46.220;19.888;2024-02-21T19:03:16;4.72;85.01
72114;SHT31;59989;46.220;19.888;2024-02-21T19:06:19;4.55;84.99
72114;SHT31;59989;46.220;19.888;2024-02-21T19:09:22;4.46;85.18
72114;SHT31;59989;46.220;19.888;2024-02-21T19:12:26;4.41;85.15
72114;SHT31;59989;46.220;19.888;2024-02-21T19:15:29;4.34;85.55
72114;SHT31;59989;46.220;19.888;2024-02-21T19:18:32;4.28;85.53